Time;durP1;ratioP1;P1;durP2;ratioP2;P2;SDS_P1;SDS_P2;PMS_P1;PMS_P2;Temp;Humidity;BMP_temperature;BMP_pressure;BME280_temperature;BME280_humidity;BME280_pressure;Samples;Min_cycle;Max_cycle;Signal;HPM_P1;HPM_P2
2022/10/29 00:00:54;;;;;;;;;;;;;;;;;;5111855;28;1971;-42
2022/10/29 00:03:21;;;;;;;;;;;;;;;;;;5111197;28;1870;-41
2022/10/29 00:06:02;;;;;;;;;;;;;;;;;;5111467;28;1493;-43
2022/10/29 00:08:31;;;;;;;;;;;;;;;;;;5111832;28;2176;-43
2022/10/29 00:11:09;;;;;;;;;;;;;;;;;;5111791;28;1992;-43
2022/10/29 00:13:36;;;;;;;;;;;;;;;;;;5111639;28;1977;-45
2022/10/29 00:16:11;;;;;;;;;;;;;;;;;;5111536;28;1971;-40
2022/10/29 00:18:38;;;;;;;;;;;;;;;;;;5111640;28;1869;-42
2022/10/29 00:21:06;;;;;;;;;;;;;;;;;;5111730;28;1959;-43
2022/10/29 00:23:34;;;;;;;;;;;;;;;;;;5111595;28;1790;-41
2022/10/29 00:26:01;;;;;;;;;;;;;;;;;;5111951;28;1818;-44
2022/10/29 00:28:28;;;;;;;;;;;;;;;;;;5111189;28;1895;-44
2022/10/29 00:30:55;;;;;;;;;;;;;;;;;;5111312;28;2395;-44
2022/10/29 00:33:22;;;;;;;;;;;;;;;;;;5111519;28;1629;-41
2022/10/29 00:35:59;;;;;;;;;;;;;;;;;;5111346;28;1913;-43
2022/10/29 00:38:26;;;;;;;;;;;;;;;;;;5111412;28;2037;-43
2022/10/29 00:40:54;;;;;;;;;;;;;;;;;;5111479;28;1622;-46
2022/10/29 00:43:22;;;;;;;;;;;;;;;;;;5111383;28;1818;-42
2022/10/29 00:45:51;;;;;;;;;;;;;;;;;;5111614;28;2036;-41
2022/10/29 00:48:20;;;;;;;;;;;;;;;;;;5111383;28;2335;-45
2022/10/29 00:50:48;;;;;;;;;;;;;;;;;;5117322;28;1936;-42
2022/10/29 00:53:17;;;;;;;;;;;;;;;;;;5131860;27;1710;-40
2022/10/29 00:55:44;;;;;;;;;;;;;;;;;;5131627;28;2149;-44
2022/10/29 00:58:11;;;;;;;;;;;;;;;;;;5131880;28;2080;-42
2022/10/29 01:00:39;;;;;;;;;;;;;;;;;;5131535;28;1820;-44
2022/10/29 01:03:06;;;;;;;;;;;;;;;;;;5131943;27;1973;-43
2022/10/29 01:05:34;;;;;;;;;;;;;;;;;;5130231;28;1475;-47
2022/10/29 01:08:02;;;;;;;;;;;;;;;;;;5131597;27;2084;-43
2022/10/29 01:10:51;;;;;;;;;;;;;;;;;;5131825;27;1675;-45
2022/10/29 01:13:36;;;;;;;;;;;;;;;;;;5131256;27;2679;-45
2022/10/29 01:16:21;;;;;;;;;;;;;;;;;;5132835;27;1911;-42
2022/10/29 01:18:59;;;;;;;;;;;;;;;;;;5135534;27;1661;-41
2022/10/29 01:21:35;;;;;;;;;;;;;;;;;;5135287;27;2255;-43
2022/10/29 01:24:24;;;;;;;;;;;;;;;;;;5135450;27;2086;-43
2022/10/29 01:26:51;;;;;;;;;;;;;;;;;;5135200;27;2037;-41
2022/10/29 01:29:33;;;;;;;;;;;;;;;;;;5135220;27;2043;-43
2022/10/29 01:32:06;;;;;;;;;;;;;;;;;;5135050;27;1671;-45
2022/10/29 01:34:39;;;;;;;;;;;;;;;;;;5135112;27;1958;-45
2022/10/29 01:37:09;;;;;;;;;;;;;;;;;;5135182;27;1966;-51
2022/10/29 01:39:54;;;;;;;;;;;;;;;;;;5135134;27;2047;-41
2022/10/29 01:42:24;;;;;;;;;;;;;;;;;;5134825;27;1378;-48
2022/10/29 01:45:11;;;;;;;;;;;;;;;;;;5134828;27;1911;-41
2022/10/29 01:47:52;;;;;;;;;;;;;;;;;;5134805;27;2246;-41
2022/10/29 01:50:22;;;;;;;;;;;;;;;;;;5132707;27;2131;-47
2022/10/29 01:52:50;;;;;;;;;;;;;;;;;;5114299;28;1810;-46
2022/10/29 01:55:21;;;;;;;;;;;;;;;;;;5114079;28;1825;-45
2022/10/29 01:57:48;;;;;;;;;;;;;;;;;;5114158;28;2031;-44
2022/10/29 02:00:16;;;;;;;;;;;;;;;;;;5133487;27;1896;-42
2022/10/29 02:02:43;;;;;;;;;;;;;;;;;;5134400;27;2260;-42
2022/10/29 02:05:22;;;;;;;;;;;;;;;;;;5134242;27;1806;-43
2022/10/29 02:07:53;;;;;;;;;;;;;;;;;;5134255;27;1918;-47
2022/10/29 02:10:38;;;;;;;;;;;;;;;;;;5122929;27;1659;-44
2022/10/29 02:13:06;;;;;;;;;;;;;;;;;;5113687;28;1679;-41
2022/10/29 02:15:44;;;;;;;;;;;;;;;;;;5113920;28;1704;-40
2022/10/29 02:18:12;;;;;;;;;;;;;;;;;;5113642;28;1974;-43
2022/10/29 02:20:42;;;;;;;;;;;;;;;;;;5113664;28;1283;-44
2022/10/29 02:23:10;;;;;;;;;;;;;;;;;;5112505;28;2114;-45
2022/10/29 02:25:37;;;;;;;;;;;;;;;;;;5113912;28;1482;-41
2022/10/29 02:28:04;;;;;;;;;;;;;;;;;;5112957;28;1845;-47
2022/10/29 02:30:31;;;;;;;;;;;;;;;;;;5113710;28;1902;-41
2022/10/29 02:32:59;;;;;;;;;;;;;;;;;;5113404;28;1896;-45
2022/10/29 02:35:26;;;;;;;;;;;;;;;;;;5113309;28;2196;-41
2022/10/29 02:37:53;;;;;;;;;;;;;;;;;;5113142;28;2153;-44
2022/10/29 02:40:20;;;;;;;;;;;;;;;;;;5113118;28;2027;-44
2022/10/29 02:42:47;;;;;;;;;;;;;;;;;;5113147;28;2051;-41
2022/10/29 02:45:14;;;;;;;;;;;;;;;;;;5113456;28;1943;-41
2022/10/29 02:47:41;;;;;;;;;;;;;;;;;;5113763;28;1855;-42
2022/10/29 02:50:08;;;;;;;;;;;;;;;;;;5113041;28;1755;-44
2022/10/29 02:52:35;;;;;;;;;;;;;;;;;;5112988;28;1972;-43
2022/10/29 02:55:02;;;;;;;;;;;;;;;;;;5112958;28;1963;-43
2022/10/29 02:57:29;;;;;;;;;;;;;;;;;;5112800;28;1902;-43
2022/10/29 02:59:56;;;;;;;;;;;;;;;;;;5112737;28;2013;-40
2022/10/29 03:02:24;;;;;;;;;;;;;;;;;;5111699;28;1965;-46
2022/10/29 03:04:51;;;;;;;;;;;;;;;;;;5112627;28;2504;-47
2022/10/29 03:07:18;;;;;;;;;;;;;;;;;;5112761;28;2090;-42
2022/10/29 03:09:46;;;;;;;;;;;;;;;;;;5112677;28;1469;-40
2022/10/29 03:12:13;;;;;;;;;;;;;;;;;;5112783;28;2038;-46
2022/10/29 03:14:40;;;;;;;;;;;;;;;;;;5112712;28;1969;-43
2022/10/29 03:17:07;;;;;;;;;;;;;;;;;;5112196;28;2084;-44
2022/10/29 03:19:34;;;;;;;;;;;;;;;;;;5111269;28;1720;-43
2022/10/29 03:22:01;;;;;;;;;;;;;;;;;;5112464;28;1638;-46
2022/10/29 03:24:28;;;;;;;;;;;;;;;;;;5112354;28;1752;-44
2022/10/29 03:26:55;;;;;;;;;;;;;;;;;;5120459;27;2069;-43
2022/10/29 03:29:22;;;;;;;;;;;;;;;;;;5132693;27;1969;-49
2022/10/29 03:31:50;;;;;;;;;;;;;;;;;;5132658;27;1934;-46
2022/10/29 03:34:16;;;;;;;;;;;;;;;;;;5132817;27;1921;-45
2022/10/29 03:36:43;;;;;;;;;;;;;;;;;;5132890;27;2193;-46
2022/10/29 03:39:10;;;;;;;;;;;;;;;;;;5131707;27;1704;-51
2022/10/29 03:41:37;;;;;;;;;;;;;;;;;;5132604;27;1853;-44
2022/10/29 03:44:04;;;;;;;;;;;;;;;;;;5131974;27;2024;-41
2022/10/29 03:46:31;;;;;;;;;;;;;;;;;;5132596;27;2284;-45
2022/10/29 03:48:58;;;;;;;;;;;;;;;;;;5132261;27;2060;-47
2022/10/29 03:51:26;;;;;;;;;;;;;;;;;;5120979;27;1484;-40
2022/10/29 03:53:52;;;;;;;;;;;;;;;;;;5111966;28;2004;-41
2022/10/29 03:56:20;;;;;;;;;;;;;;;;;;5111937;28;1837;-45
2022/10/29 03:58:47;;;;;;;;;;;;;;;;;;5111751;28;1993;-41
2022/10/29 04:01:14;;;;;;;;;;;;;;;;;;5112009;28;1992;-40
2022/10/29 04:03:42;;;;;;;;;;;;;;;;;;5111935;28;1580;-41
2022/10/29 04:06:10;;;;;;;;;;;;;;;;;;5111708;28;1617;-42
2022/10/29 04:08:38;;;;;;;;;;;;;;;;;;5111774;28;1849;-42
2022/10/29 04:11:06;;;;;;;;;;;;;;;;;;5110328;28;1876;-43
2022/10/29 04:13:34;;;;;;;;;;;;;;;;;;5111782;28;2219;-45
2022/10/29 04:16:01;;;;;;;;;;;;;;;;;;5111639;28;2160;-46
2022/10/29 04:18:28;;;;;;;;;;;;;;;;;;5111505;28;2003;-42
2022/10/29 04:20:58;;;;;;;;;;;;;;;;;;5111490;28;1780;-44
2022/10/29 04:23:45;;;;;;;;;;;;;;;;;;5111529;28;1713;-45
2022/10/29 04:26:32;;;;;;;;;;;;;;;;;;5111463;28;2159;-45
2022/10/29 04:29:20;;;;;;;;;;;;;;;;;;5111428;28;1436;-40
2022/10/29 04:31:47;;;;;;;;;;;;;;;;;;5111735;28;1923;-42
2022/10/29 04:34:14;;;;;;;;;;;;;;;;;;5111507;28;1939;-40
2022/10/29 04:36:41;;;;;;;;;;;;;;;;;;5111369;28;1908;-42
2022/10/29 04:39:08;;;;;;;;;;;;;;;;;;5111414;28;1985;-40
2022/10/29 04:41:35;;;;;;;;;;;;;;;;;;5111360;28;1552;-48
2022/10/29 04:44:03;;;;;;;;;;;;;;;;;;5110156;28;2005;-42
2022/10/29 04:46:30;;;;;;;;;;;;;;;;;;5111432;28;2123;-52
2022/10/29 04:48:57;;;;;;;;;;;;;;;;;;5111059;28;1974;-48
2022/10/29 04:51:25;;;;;;;;;;;;;;;;;;5114831;28;2000;-47
2022/10/29 04:53:52;;;;;;;;;;;;;;;;;;5115440;28;1984;-45
2022/10/29 04:56:20;;;;;;;;;;;;;;;;;;5115505;28;1252;-50
2022/10/29 04:58:49;;;;;;;;;;;;;;;;;;5115276;28;2032;-41
2022/10/29 05:01:16;;;;;;;;;;;;;;;;;;5115256;28;1925;-42
2022/10/29 05:03:43;;;;;;;;;;;;;;;;;;5114896;28;1677;-46
2022/10/29 05:06:10;;;;;;;;;;;;;;;;;;5114900;28;1856;-40
2022/10/29 05:08:37;;;;;;;;;;;;;;;;;;5115137;28;2151;-46
2022/10/29 05:11:05;;;;;;;;;;;;;;;;;;5115042;28;1992;-41
2022/10/29 05:13:32;;;;;;;;;;;;;;;;;;5113661;28;2434;-48
2022/10/29 05:16:00;;;;;;;;;;;;;;;;;;5114843;28;1952;-41
2022/10/29 05:18:27;;;;;;;;;;;;;;;;;;5114742;28;2171;-46
2022/10/29 05:20:55;;;;;;;;;;;;;;;;;;5114918;28;1435;-47
2022/10/29 05:23:22;;;;;;;;;;;;;;;;;;5114871;28;1839;-44
2022/10/29 05:25:50;;;;;;;;;;;;;;;;;;5114959;28;1856;-46
2022/10/29 05:28:19;;;;;;;;;;;;;;;;;;5114786;28;1710;-43
2022/10/29 05:30:47;;;;;;;;;;;;;;;;;;5114612;28;1815;-47
2022/10/29 05:33:15;;;;;;;;;;;;;;;;;;5114522;28;1586;-45
2022/10/29 05:35:43;;;;;;;;;;;;;;;;;;5114531;28;1663;-42
2022/10/29 05:38:10;;;;;;;;;;;;;;;;;;5114636;28;1915;-48
2022/10/29 05:40:38;;;;;;;;;;;;;;;;;;5114460;28;2033;-43
2022/10/29 05:43:07;;;;;;;;;;;;;;;;;;5113026;28;1974;-47
2022/10/29 05:45:34;;;;;;;;;;;;;;;;;;5114515;28;1511;-44
2022/10/29 05:48:02;;;;;;;;;;;;;;;;;;5114289;28;1971;-51
2022/10/29 05:50:33;;;;;;;;;;;;;;;;;;5117915;27;1798;-49
2022/10/29 05:53:04;;;;;;;;;;;;;;;;;;5134762;27;1845;-51
2022/10/29 05:55:32;;;;;;;;;;;;;;;;;;5134692;27;1795;-54
2022/10/29 05:58:08;;;;;;;;;;;;;;;;;;5134703;27;1976;-41
2022/10/29 06:00:38;;;;;;;;;;;;;;;;;;5134529;27;1982;-42
2022/10/29 06:03:10;;;;;;;;;;;;;;;;;;5133731;27;2286;-43
2022/10/29 06:05:39;;;;;;;;;;;;;;;;;;5134244;27;1975;-47
2022/10/29 06:08:07;;;;;;;;;;;;;;;;;;5134413;27;2059;-49
2022/10/29 06:10:35;;;;;;;;;;;;;;;;;;5134503;27;1661;-46
2022/10/29 06:13:08;;;;;;;;;;;;;;;;;;5134456;27;1810;-44
2022/10/29 06:15:35;;;;;;;;;;;;;;;;;;5134474;27;1363;-44
2022/10/29 06:18:13;;;;;;;;;;;;;;;;;;5134034;27;2006;-44
2022/10/29 06:20:42;;;;;;;;;;;;;;;;;;5134158;27;1586;-46
2022/10/29 06:23:10;;;;;;;;;;;;;;;;;;5134053;27;1682;-48
2022/10/29 06:25:37;;;;;;;;;;;;;;;;;;5134195;27;2107;-49
2022/10/29 06:28:08;;;;;;;;;;;;;;;;;;5134139;27;1800;-51
2022/10/29 06:30:37;;;;;;;;;;;;;;;;;;5134317;27;1536;-45
2022/10/29 06:33:04;;;;;;;;;;;;;;;;;;5133805;27;2085;-44
2022/10/29 06:35:32;;;;;;;;;;;;;;;;;;5132935;27;2041;-46
2022/10/29 06:38:07;;;;;;;;;;;;;;;;;;5133654;27;1930;-47
2022/10/29 06:40:51;;;;;;;;;;;;;;;;;;5133701;27;2033;-46
2022/10/29 06:43:18;;;;;;;;;;;;;;;;;;5133446;27;1794;-47
2022/10/29 06:45:47;;;;;;;;;;;;;;;;;;5133694;27;1883;-47
2022/10/29 06:48:22;;;;;;;;;;;;;;;;;;5133584;27;1657;-45
2022/10/29 06:50:50;;;;;;;;;;;;;;;;;;5127336;27;1778;-43
2022/10/29 06:53:21;;;;;;;;;;;;;;;;;;5113145;28;1778;-44
2022/10/29 06:55:48;;;;;;;;;;;;;;;;;;5118347;27;2157;-42
2022/10/29 06:58:17;;;;;;;;;;;;;;;;;;5133322;27;2082;-41
2022/10/29 07:00:47;;;;;;;;;;;;;;;;;;5133486;27;1735;-46
2022/10/29 07:03:16;;;;;;;;;;;;;;;;;;5131935;27;2080;-47
2022/10/29 07:05:48;;;;;;;;;;;;;;;;;;5133098;27;1555;-42
2022/10/29 07:08:16;;;;;;;;;;;;;;;;;;5133265;27;1822;-45
2022/10/29 07:10:44;;;;;;;;;;;;;;;;;;5132918;27;1520;-40
2022/10/29 07:13:11;;;;;;;;;;;;;;;;;;5133097;27;1983;-41
2022/10/29 07:15:41;;;;;;;;;;;;;;;;;;5133193;27;1932;-45
2022/10/29 07:18:10;;;;;;;;;;;;;;;;;;5132916;27;1913;-47
2022/10/29 07:20:39;;;;;;;;;;;;;;;;;;5133163;27;2118;-43
2022/10/29 07:23:10;;;;;;;;;;;;;;;;;;5132802;27;1678;-40
2022/10/29 07:25:38;;;;;;;;;;;;;;;;;;5132869;27;1924;-39
2022/10/29 07:28:17;;;;;;;;;;;;;;;;;;5133095;27;2365;-41
2022/10/29 07:30:47;;;;;;;;;;;;;;;;;;5132660;27;2029;-40
2022/10/29 07:33:17;;;;;;;;;;;;;;;;;;5132685;27;1719;-44
2022/10/29 07:35:49;;;;;;;;;;;;;;;;;;5132694;27;2239;-41
2022/10/29 07:38:19;;;;;;;;;;;;;;;;;;5132592;27;1909;-40
2022/10/29 07:40:47;;;;;;;;;;;;;;;;;;5132733;27;2026;-39
2022/10/29 07:43:14;;;;;;;;;;;;;;;;;;5132786;27;1852;-41
2022/10/29 07:45:51;;;;;;;;;;;;;;;;;;5132709;27;2121;-37
2022/10/29 07:48:19;;;;;;;;;;;;;;;;;;5132592;27;1818;-46
2022/10/29 07:50:48;;;;;;;;;;;;;;;;;;5126673;27;1646;-40
2022/10/29 07:53:16;;;;;;;;;;;;;;;;;;5111978;28;2246;-41
2022/10/29 07:55:43;;;;;;;;;;;;;;;;;;5111850;28;1822;-40
2022/10/29 07:58:12;;;;;;;;;;;;;;;;;;5111869;28;2079;-41
2022/10/29 08:00:43;;;;;;;;;;;;;;;;;;5111485;28;1954;-41
2022/10/29 08:03:11;;;;;;;;;;;;;;;;;;5111862;28;2141;-40
2022/10/29 08:05:38;;;;;;;;;;;;;;;;;;5111332;28;1682;-44
2022/10/29 08:08:08;;;;;;;;;;;;;;;;;;5111602;28;1703;-40
2022/10/29 08:10:35;;;;;;;;;;;;;;;;;;5111524;28;1812;-41
2022/10/29 08:13:03;;;;;;;;;;;;;;;;;;5111640;28;2107;-51
2022/10/29 08:15:38;;;;;;;;;;;;;;;;;;5111743;28;1831;-40
2022/10/29 08:18:10;;;;;;;;;;;;;;;;;;5111319;28;1901;-41
2022/10/29 08:20:38;;;;;;;;;;;;;;;;;;5111518;28;2038;-39
2022/10/29 08:23:05;;;;;;;;;;;;;;;;;;5111445;28;1804;-40
2022/10/29 08:25:39;;;;;;;;;;;;;;;;;;5115921;28;1686;-49
2022/10/29 08:28:09;;;;;;;;;;;;;;;;;;5118331;27;1965;-44
2022/10/29 08:30:40;;;;;;;;;;;;;;;;;;5118362;27;1680;-40
2022/10/29 08:33:08;;;;;;;;;;;;;;;;;;5118369;28;1995;-43
2022/10/29 08:35:35;;;;;;;;;;;;;;;;;;5118491;27;1671;-41
2022/10/29 08:38:02;;;;;;;;;;;;;;;;;;5117189;28;1934;-41
2022/10/29 08:40:47;;;;;;;;;;;;;;;;;;5118200;27;1825;-39
2022/10/29 08:43:23;;;;;;;;;;;;;;;;;;5118090;27;1822;-40
2022/10/29 08:45:52;;;;;;;;;;;;;;;;;;5118080;28;1765;-42
2022/10/29 08:48:45;;;;;;;;;;;;;;;;;;5117994;28;2285;-43
2022/10/29 08:51:15;;;;;;;;;;;;;;;;;;5116790;27;2098;-40
2022/10/29 08:53:47;;;;;;;;;;;;;;;;;;5115546;27;1650;-39
2022/10/29 08:56:33;;;;;;;;;;;;;;;;;;5116588;27;1783;-40
2022/10/29 08:59:12;;;;;;;;;;;;;;;;;;5115877;28;2056;-41
2022/10/29 09:01:40;;;;;;;;;;;;;;;;;;5116158;27;1460;-40
2022/10/29 09:04:27;;;;;;;;;;;;;;;;;;5115624;27;1978;-41
2022/10/29 09:07:20;;;;;;;;;;;;;;;;;;5112372;27;1856;-40
2022/10/29 09:09:56;;;;;;;;;;;;;;;;;;5116865;28;1979;-42
2022/10/29 09:12:23;;;;;;;;;;;;;;;;;;5118046;27;2126;-41
2022/10/29 09:15:09;;;;;;;;;;;;;;;;;;5118032;27;2115;-41
2022/10/29 09:18:01;;;;;;;;;;;;;;;;;;5117649;28;1939;-40
2022/10/29 09:20:39;;;;;;;;;;;;;;;;;;5116752;28;2362;-40
2022/10/29 09:23:13;;;;;;;;;;;;;;;;;;5118437;28;1923;-41
2022/10/29 09:25:59;;;;;;;;;;;;;;;;;;5117781;28;1945;-50
2022/10/29 09:28:38;;;;;;;;;;;;;;;;;;5117945;28;1739;-40
2022/10/29 09:31:19;;;;;;;;;;;;;;;;;;5118207;28;2159;-41
2022/10/29 09:33:48;;;;;;;;;;;;;;;;;;5117823;28;1544;-40
2022/10/29 09:36:26;;;;;;;;;;;;;;;;;;5115431;27;1765;-41
2022/10/29 09:39:01;;;;;;;;;;;;;;;;;;5114604;28;1910;-40
2022/10/29 09:41:34;;;;;;;;;;;;;;;;;;5114917;28;1871;-41
2022/10/29 09:44:22;;;;;;;;;;;;;;;;;;5114467;28;1820;-40
2022/10/29 09:47:05;;;;;;;;;;;;;;;;;;5114445;28;2254;-40
2022/10/29 09:49:38;;;;;;;;;;;;;;;;;;5114537;28;2270;-43
2022/10/29 09:52:13;;;;;;;;;;;;;;;;;;5131405;27;1412;-44
2022/10/29 09:54:44;;;;;;;;;;;;;;;;;;5135103;27;2082;-43
2022/10/29 09:57:18;;;;;;;;;;;;;;;;;;5134561;27;1490;-41
2022/10/29 10:00:18;;;;;;;;;;;;;;;;;;5134653;27;2525;-41
2022/10/29 10:02:58;;;;;;;;;;;;;;;;;;5132727;27;1899;-41
2022/10/29 10:05:33;;;;;;;;;;;;;;;;;;5134242;27;1642;-45
2022/10/29 10:08:05;;;;;;;;;;;;;;;;;;5134597;27;1670;-40
2022/10/29 10:10:33;;;;;;;;;;;;;;;;;;5134683;27;2255;-40
2022/10/29 10:13:03;;;;;;;;;;;;;;;;;;5134339;27;1996;-40
2022/10/29 10:15:35;;;;;;;;;;;;;;;;;;5134538;27;1743;-45
2022/10/29 10:18:15;;;;;;;;;;;;;;;;;;5134292;27;2062;-40
2022/10/29 10:20:44;;;;;;;;;;;;;;;;;;5134135;27;1551;-41
2022/10/29 10:23:26;;;;;;;;;;;;;;;;;;5134004;27;1887;-41
2022/10/29 10:25:54;;;;;;;;;;;;;;;;;;5134388;27;1979;-49
2022/10/29 10:28:33;;;;;;;;;;;;;;;;;;5133975;27;2144;-42
2022/10/29 10:31:12;;;;;;;;;;;;;;;;;;5134182;27;1655;-41
2022/10/29 10:33:54;;;;;;;;;;;;;;;;;;5134239;27;1894;-39
2022/10/29 10:36:27;;;;;;;;;;;;;;;;;;5134262;27;1994;-41
2022/10/29 10:38:58;;;;;;;;;;;;;;;;;;5133737;27;1913;-41
2022/10/29 10:41:29;;;;;;;;;;;;;;;;;;5133990;27;1526;-40
2022/10/29 10:43:59;;;;;;;;;;;;;;;;;;5133740;27;1684;-48
2022/10/29 10:46:29;;;;;;;;;;;;;;;;;;5133907;27;1669;-39
2022/10/29 10:49:07;;;;;;;;;;;;;;;;;;5133531;27;2087;-39
2022/10/29 10:51:38;;;;;;;;;;;;;;;;;;5121008;27;2101;-40
2022/10/29 10:54:22;;;;;;;;;;;;;;;;;;5113109;28;1743;-40
2022/10/29 10:57:01;;;;;;;;;;;;;;;;;;5112833;28;1262;-40
2022/10/29 10:59:51;;;;;;;;;;;;;;;;;;5113067;28;2103;-41
2022/10/29 11:02:24;;;;;;;;;;;;;;;;;;5110115;28;2077;-40
2022/10/29 11:04:55;;;;;;;;;;;;;;;;;;5112766;28;1797;-42
2022/10/29 11:07:26;;;;;;;;;;;;;;;;;;5112907;28;2291;-43
2022/10/29 11:09:55;;;;;;;;;;;;;;;;;;5111627;28;1808;-40
2022/10/29 11:12:23;;;;;;;;;;;;;;;;;;5112464;28;1801;-39
2022/10/29 11:15:17;;;;;;;;;;;;;;;;;;5111471;28;1998;-48
2022/10/29 11:17:54;;;;;;;;;;;;;;;;;;5112050;28;1764;-40
2022/10/29 11:20:25;;;;;;;;;;;;;;;;;;5112793;28;1905;-45
2022/10/29 11:23:05;;;;;;;;;;;;;;;;;;5112427;28;1812;-44
2022/10/29 11:25:58;;;;;;;;;;;;;;;;;;5112586;28;1651;-44
2022/10/29 11:28:30;;;;;;;;;;;;;;;;;;5111452;28;1816;-40
2022/10/29 11:31:18;;;;;;;;;;;;;;;;;;5112143;28;1890;-40
2022/10/29 11:34:05;;;;;;;;;;;;;;;;;;5112686;28;1471;-49
2022/10/29 11:36:39;;;;;;;;;;;;;;;;;;5112049;28;2200;-42
2022/10/29 11:39:07;;;;;;;;;;;;;;;;;;5112011;28;1909;-40
2022/10/29 11:41:39;;;;;;;;;;;;;;;;;;5112419;28;1922;-40
2022/10/29 11:44:11;;;;;;;;;;;;;;;;;;5112129;28;1936;-39
2022/10/29 11:46:41;;;;;;;;;;;;;;;;;;5112272;28;1999;-40
2022/10/29 11:49:20;;;;;;;;;;;;;;;;;;5110774;28;1523;-42
2022/10/29 11:51:56;;;;;;;;;;;;;;;;;;5126466;27;2572;-39
2022/10/29 11:54:41;;;;;;;;;;;;;;;;;;5132765;27;2182;-39
2022/10/29 11:57:11;;;;;;;;;;;;;;;;;;5132455;27;1661;-40
2022/10/29 11:59:45;;;;;;;;;;;;;;;;;;5131620;27;2435;-40
2022/10/29 12:02:31;;;;;;;;;;;;;;;;;;5132192;27;2228;-39
2022/10/29 12:04:58;;;;;;;;;;;;;;;;;;5132082;27;1944;-42
2022/10/29 12:07:26;;;;;;;;;;;;;;;;;;5131358;27;2251;-39
2022/10/29 12:10:05;;;;;;;;;;;;;;;;;;5132692;27;2066;-38
2022/10/29 12:12:43;;;;;;;;;;;;;;;;;;5132163;27;1707;-39
2022/10/29 12:15:17;;;;;;;;;;;;;;;;;;5132436;27;2006;-38
2022/10/29 12:17:49;;;;;;;;;;;;;;;;;;5132585;27;1578;-40
2022/10/29 12:20:39;;;;;;;;;;;;;;;;;;5132184;27;1939;-39
2022/10/29 12:23:23;;;;;;;;;;;;;;;;;;5129105;28;2073;-39
2022/10/29 12:25:51;;;;;;;;;;;;;;;;;;5132141;27;1563;-38
2022/10/29 12:28:28;;;;;;;;;;;;;;;;;;5132378;27;1757;-39
2022/10/29 12:30:57;;;;;;;;;;;;;;;;;;5132205;27;1856;-36
2022/10/29 12:33:46;;;;;;;;;;;;;;;;;;5131869;28;1857;-42
2022/10/29 12:36:19;;;;;;;;;;;;;;;;;;5131995;27;2000;-42
2022/10/29 12:38:50;;;;;;;;;;;;;;;;;;5130816;28;2000;-47
2022/10/29 12:41:20;;;;;;;;;;;;;;;;;;5132307;27;1624;-38
2022/10/29 12:43:47;;;;;;;;;;;;;;;;;;5132093;27;2091;-39
2022/10/29 12:46:17;;;;;;;;;;;;;;;;;;5132086;28;1864;-39
2022/10/29 12:48:54;;;;;;;;;;;;;;;;;;5131842;27;1961;-39
2022/10/29 12:51:27;;;;;;;;;;;;;;;;;;5121058;27;1538;-38
2022/10/29 12:53:54;;;;;;;;;;;;;;;;;;5111378;28;1866;-39
2022/10/29 12:56:23;;;;;;;;;;;;;;;;;;5111422;28;1782;-38
2022/10/29 12:58:55;;;;;;;;;;;;;;;;;;5111523;28;1915;-44
2022/10/29 13:01:26;;;;;;;;;;;;;;;;;;5111284;28;2156;-39
2022/10/29 13:04:23;;;;;;;;;;;;;;;;;;5111151;28;1679;-39
2022/10/29 13:07:08;;;;;;;;;;;;;;;;;;5109911;28;1720;-38
2022/10/29 13:09:36;;;;;;;;;;;;;;;;;;5111251;28;1653;-39
2022/10/29 13:12:10;;;;;;;;;;;;;;;;;;5114001;28;1353;-39
2022/10/29 13:14:46;;;;;;;;;;;;;;;;;;5114883;28;1806;-39
2022/10/29 13:17:25;;;;;;;;;;;;;;;;;;5131843;27;2038;-40
2022/10/29 13:19:58;;;;;;;;;;;;;;;;;;5135602;27;2024;-38
2022/10/29 13:22:44;;;;;;;;;;;;;;;;;;5135450;27;1720;-46
2022/10/29 13:25:29;;;;;;;;;;;;;;;;;;5135588;27;1932;-45
2022/10/29 13:27:57;;;;;;;;;;;;;;;;;;5135431;27;2276;-39
2022/10/29 13:30:25;;;;;;;;;;;;;;;;;;5135446;27;1745;-39
2022/10/29 13:32:53;;;;;;;;;;;;;;;;;;5135456;27;1766;-39
2022/10/29 13:35:21;;;;;;;;;;;;;;;;;;5134086;27;1542;-46
2022/10/29 13:37:49;;;;;;;;;;;;;;;;;;5134953;27;1963;-39
2022/10/29 13:40:31;;;;;;;;;;;;;;;;;;5135118;27;1986;-39
2022/10/29 13:43:03;;;;;;;;;;;;;;;;;;5134938;27;2261;-40
2022/10/29 13:45:31;;;;;;;;;;;;;;;;;;5134950;27;1868;-39
2022/10/29 13:48:13;;;;;;;;;;;;;;;;;;5133719;27;1808;-40
2022/10/29 13:50:42;;;;;;;;;;;;;;;;;;5129630;27;1632;-39
2022/10/29 13:53:12;;;;;;;;;;;;;;;;;;5114423;28;1883;-40
2022/10/29 13:55:43;;;;;;;;;;;;;;;;;;5114269;28;1878;-42
2022/10/29 13:58:23;;;;;;;;;;;;;;;;;;5114780;28;1865;-40
2022/10/29 14:00:51;;;;;;;;;;;;;;;;;;5114392;28;1972;-39
2022/10/29 14:03:27;;;;;;;;;;;;;;;;;;5114120;28;1570;-39
2022/10/29 14:05:59;;;;;;;;;;;;;;;;;;5114161;28;2145;-43
2022/10/29 14:08:47;;;;;;;;;;;;;;;;;;5114004;28;1967;-39
2022/10/29 14:11:34;;;;;;;;;;;;;;;;;;5112453;28;1785;-40
2022/10/29 14:14:03;;;;;;;;;;;;;;;;;;5112921;28;2150;-39
2022/10/29 14:16:33;;;;;;;;;;;;;;;;;;5114080;28;2126;-40
2022/10/29 14:19:14;;;;;;;;;;;;;;;;;;5114113;28;2173;-39
2022/10/29 14:21:41;;;;;;;;;;;;;;;;;;5113772;27;1800;-48
2022/10/29 14:24:09;;;;;;;;;;;;;;;;;;5111907;28;1910;-38
2022/10/29 14:26:39;;;;;;;;;;;;;;;;;;5113617;28;1871;-44
2022/10/29 14:29:21;;;;;;;;;;;;;;;;;;5113680;28;2303;-40
2022/10/29 14:32:06;;;;;;;;;;;;;;;;;;5113505;28;2034;-40
2022/10/29 14:34:33;;;;;;;;;;;;;;;;;;5113526;28;1684;-42
2022/10/29 14:37:05;;;;;;;;;;;;;;;;;;5112230;28;2487;-40
2022/10/29 14:39:35;;;;;;;;;;;;;;;;;;5113687;28;2131;-38
2022/10/29 14:42:35;;;;;;;;;;;;;;;;;;5113352;28;2002;-40
2022/10/29 14:45:06;;;;;;;;;;;;;;;;;;5113315;28;2243;-43
2022/10/29 14:47:36;;;;;;;;;;;;;;;;;;5113400;28;2005;-40
2022/10/29 14:50:04;;;;;;;;;;;;;;;;;;5113193;28;1866;-45
2022/10/29 14:52:40;;;;;;;;;;;;;;;;;;5113100;28;1999;-39
2022/10/29 14:55:08;;;;;;;;;;;;;;;;;;5113193;28;1906;-40
2022/10/29 14:57:39;;;;;;;;;;;;;;;;;;5112945;28;1976;-47
2022/10/29 15:00:06;;;;;;;;;;;;;;;;;;5113273;28;2028;-42
2022/10/29 15:02:38;;;;;;;;;;;;;;;;;;5113286;28;1812;-50
2022/10/29 15:05:25;;;;;;;;;;;;;;;;;;5113022;28;2301;-51
2022/10/29 15:08:08;;;;;;;;;;;;;;;;;;5112575;28;1980;-47
2022/10/29 15:10:45;;;;;;;;;;;;;;;;;;5112803;28;1769;-40
2022/10/29 15:13:18;;;;;;;;;;;;;;;;;;5112418;28;1742;-46
2022/10/29 15:15:52;;;;;;;;;;;;;;;;;;5112536;28;1811;-44
2022/10/29 15:18:20;;;;;;;;;;;;;;;;;;5112603;28;2290;-46
2022/10/29 15:20:47;;;;;;;;;;;;;;;;;;5112677;28;1972;-46
2022/10/29 15:23:34;;;;;;;;;;;;;;;;;;5111311;28;1840;-41
2022/10/29 15:26:04;;;;;;;;;;;;;;;;;;5112438;28;1677;-40
2022/10/29 15:28:42;;;;;;;;;;;;;;;;;;5112446;28;1902;-44
2022/10/29 15:31:18;;;;;;;;;;;;;;;;;;5112424;28;1822;-41
2022/10/29 15:33:46;;;;;;;;;;;;;;;;;;5112006;28;1949;-42
2022/10/29 15:36:13;;;;;;;;;;;;;;;;;;5111881;28;1900;-46
2022/10/29 15:38:40;;;;;;;;;;;;;;;;;;5112382;28;1823;-47
2022/10/29 15:41:07;;;;;;;;;;;;;;;;;;5112030;28;1913;-48
2022/10/29 15:43:46;;;;;;;;;;;;;;;;;;5112280;28;1913;-46
2022/10/29 15:46:23;;;;;;;;;;;;;;;;;;5112170;28;1837;-44
2022/10/29 15:48:51;;;;;;;;;;;;;;;;;;5111999;28;1652;-45
2022/10/29 15:51:25;;;;;;;;;;;;;;;;;;5122247;27;1968;-45
2022/10/29 15:53:57;;;;;;;;;;;;;;;;;;5131573;27;1816;-48
2022/10/29 15:56:24;;;;;;;;;;;;;;;;;;5112100;28;2141;-45
2022/10/29 15:58:52;;;;;;;;;;;;;;;;;;5130726;27;1605;-44
2022/10/29 16:01:19;;;;;;;;;;;;;;;;;;5141224;27;1894;-47
2022/10/29 16:03:46;;;;;;;;;;;;;;;;;;5111851;28;2070;-42
2022/10/29 16:06:14;;;;;;;;;;;;;;;;;;5113750;27;2093;-45
2022/10/29 16:08:41;;;;;;;;;;;;;;;;;;5111873;28;1909;-48
2022/10/29 16:11:12;;;;;;;;;;;;;;;;;;5111554;28;1945;-40
2022/10/29 16:13:40;;;;;;;;;;;;;;;;;;5111703;28;2097;-49
2022/10/29 16:16:16;;;;;;;;;;;;;;;;;;5111337;28;1798;-46
2022/10/29 16:18:43;;;;;;;;;;;;;;;;;;5111568;28;1681;-50
2022/10/29 16:21:30;;;;;;;;;;;;;;;;;;5111725;28;1968;-45
2022/10/29 16:23:58;;;;;;;;;;;;;;;;;;5111716;28;1976;-44
2022/10/29 16:26:25;;;;;;;;;;;;;;;;;;5111598;28;1433;-49
2022/10/29 16:28:52;;;;;;;;;;;;;;;;;;5111362;28;2298;-48
2022/10/29 16:31:24;;;;;;;;;;;;;;;;;;5111700;28;1665;-44
2022/10/29 16:33:53;;;;;;;;;;;;;;;;;;5111475;28;2228;-41
2022/10/29 16:36:20;;;;;;;;;;;;;;;;;;5111596;28;2005;-41
2022/10/29 16:38:47;;;;;;;;;;;;;;;;;;5111216;28;2163;-48
2022/10/29 16:41:15;;;;;;;;;;;;;;;;;;5111487;28;1971;-41
2022/10/29 16:43:43;;;;;;;;;;;;;;;;;;5111391;28;1774;-49
2022/10/29 16:46:10;;;;;;;;;;;;;;;;;;5112760;28;2114;-49
2022/10/29 16:48:38;;;;;;;;;;;;;;;;;;5115644;28;1962;-43
2022/10/29 16:51:05;;;;;;;;;;;;;;;;;;5124164;27;1944;-45
2022/10/29 16:53:33;;;;;;;;;;;;;;;;;;5136282;27;2207;-49
2022/10/29 16:56:00;;;;;;;;;;;;;;;;;;5135896;27;1590;-41
2022/10/29 16:58:27;;;;;;;;;;;;;;;;;;5135938;27;1952;-42
2022/10/29 17:01:05;;;;;;;;;;;;;;;;;;5135936;27;1924;-47
2022/10/29 17:03:33;;;;;;;;;;;;;;;;;;5134759;27;1885;-47
2022/10/29 17:06:04;;;;;;;;;;;;;;;;;;5135708;27;1271;-43
2022/10/29 17:08:32;;;;;;;;;;;;;;;;;;5135406;27;1711;-44
2022/10/29 17:11:04;;;;;;;;;;;;;;;;;;5135765;27;1701;-44
2022/10/29 17:13:32;;;;;;;;;;;;;;;;;;5135841;27;1740;-43
2022/10/29 17:15:59;;;;;;;;;;;;;;;;;;5135682;27;2004;-43
2022/10/29 17:18:26;;;;;;;;;;;;;;;;;;5135741;27;1653;-43
2022/10/29 17:20:57;;;;;;;;;;;;;;;;;;5135055;27;1973;-43
2022/10/29 17:23:25;;;;;;;;;;;;;;;;;;5135559;27;1798;-49
2022/10/29 17:25:53;;;;;;;;;;;;;;;;;;5135594;27;1927;-48
2022/10/29 17:28:21;;;;;;;;;;;;;;;;;;5135642;27;1796;-45
2022/10/29 17:30:48;;;;;;;;;;;;;;;;;;5135431;27;1992;-45
2022/10/29 17:33:15;;;;;;;;;;;;;;;;;;5135368;27;1935;-47
2022/10/29 17:35:43;;;;;;;;;;;;;;;;;;5135128;27;2379;-50